Berkley, Michigan
Current Conditions -  °F | °C
As of 9:35 AM on Tuesday 27 Jan 2015 (Local Time) from KVLL Reporting Station
Clear Clear  
Wind Chill: -7°   Ceiling: Unl
Heat Index: -7°   Visibility: 10mi
Dew Point: -12°   Wind: 3mph
Humidity: 69%   Direction: 10°N
Pressure: 30.1"   Gusts: NA
Location:  42.5°N, 83.18°W
Report Text: KVLL 271435Z AUTO 01003KT 10SM CLR M07/M12 A3010 RMK AO2 T10721120
Loading
Personal Weather Stations






























Interactive Weather Map New forecast layout! Learn more

10-Day Weather Forecast

Advertisements
Track Severe Weather on mobile